sensor_id;sensor_type;location;lat;lon;timestamp;temperature;humidity
148;DHT22;142;50.652;12.216;2023-04-28T00:02:19;7.50;48.00
148;DHT22;142;50.652;12.216;2023-04-28T00:04:46;7.50;47.20
148;DHT22;142;50.652;12.216;2023-04-28T00:07:13;7.50;45.90
148;DHT22;142;50.652;12.216;2023-04-28T00:09:41;7.50;45.90
148;DHT22;142;50.652;12.216;2023-04-28T00:12:09;7.50;45.70
148;DHT22;142;50.652;12.216;2023-04-28T00:14:40;7.50;45.20
148;DHT22;142;50.652;12.216;2023-04-28T00:17:07;7.50;44.30
148;DHT22;142;50.652;12.216;2023-04-28T00:19:35;7.50;43.40
148;DHT22;142;50.652;12.216;2023-04-28T00:22:03;7.50;43.30
148;DHT22;142;50.652;12.216;2023-04-28T00:24:30;7.60;42.70
148;DHT22;142;50.652;12.216;2023-04-28T00:27:00;7.60;42.10
148;DHT22;142;50.652;12.216;2023-04-28T00:29:27;7.60;43.00
148;DHT22;142;50.652;12.216;2023-04-28T00:31:55;7.60;43.30
148;DHT22;142;50.652;12.216;2023-04-28T00:34:22;7.50;42.60
148;DHT22;142;50.652;12.216;2023-04-28T00:36:49;7.50;42.10
148;DHT22;142;50.652;12.216;2023-04-28T00:39:18;7.50;41.80
148;DHT22;142;50.652;12.216;2023-04-28T00:41:45;7.50;41.30
148;DHT22;142;50.652;12.216;2023-04-28T00:44:14;7.50;41.50
148;DHT22;142;50.652;12.216;2023-04-28T00:46:41;7.60;40.50
148;DHT22;142;50.652;12.216;2023-04-28T00:49:09;7.60;41.00
148;DHT22;142;50.652;12.216;2023-04-28T00:51:36;7.60;40.90
148;DHT22;142;50.652;12.216;2023-04-28T00:54:04;7.60;40.60
148;DHT22;142;50.652;12.216;2023-04-28T00:56:32;7.50;40.60
148;DHT22;142;50.652;12.216;2023-04-28T00:59:00;7.60;40.50
148;DHT22;142;50.652;12.216;2023-04-28T01:01:28;7.60;40.50
148;DHT22;142;50.652;12.216;2023-04-28T01:03:55;7.60;40.80
148;DHT22;142;50.652;12.216;2023-04-28T01:06:22;7.70;40.30
148;DHT22;142;50.652;12.216;2023-04-28T01:08:50;7.70;41.10
148;DHT22;142;50.652;12.216;2023-04-28T01:11:17;7.80;41.60
148;DHT22;142;50.652;12.216;2023-04-28T01:13:45;7.80;41.50
148;DHT22;142;50.652;12.216;2023-04-28T01:16:12;7.80;41.90
148;DHT22;142;50.652;12.216;2023-04-28T01:18:46;7.80;42.90
148;DHT22;142;50.652;12.216;2023-04-28T01:21:13;7.70;43.90
148;DHT22;142;50.652;12.216;2023-04-28T01:23:45;7.60;44.40
148;DHT22;142;50.652;12.216;2023-04-28T01:26:12;7.60;43.40
148;DHT22;142;50.652;12.216;2023-04-28T01:28:39;7.60;42.20
148;DHT22;142;50.652;12.216;2023-04-28T01:31:06;7.60;41.50
148;DHT22;142;50.652;12.216;2023-04-28T01:33:33;7.70;42.10
148;DHT22;142;50.652;12.216;2023-04-28T01:36:01;7.70;42.10
148;DHT22;142;50.652;12.216;2023-04-28T01:38:29;7.70;41.90
148;DHT22;142;50.652;12.216;2023-04-28T01:40:58;7.80;41.60
148;DHT22;142;50.652;12.216;2023-04-28T01:43:27;7.80;42.60
148;DHT22;142;50.652;12.216;2023-04-28T01:45:54;7.90;43.00
148;DHT22;142;50.652;12.216;2023-04-28T01:48:21;7.90;43.50
148;DHT22;142;50.652;12.216;2023-04-28T01:50:49;7.90;44.20
148;DHT22;142;50.652;12.216;2023-04-28T01:53:16;7.90;45.00
148;DHT22;142;50.652;12.216;2023-04-28T01:55:45;8.00;45.00
148;DHT22;142;50.652;12.216;2023-04-28T01:58:14;7.90;46.50
148;DHT22;142;50.652;12.216;2023-04-28T02:00:41;7.90;46.30
148;DHT22;142;50.652;12.216;2023-04-28T02:03:08;7.90;46.00
148;DHT22;142;50.652;12.216;2023-04-28T02:05:36;7.90;45.20
148;DHT22;142;50.652;12.216;2023-04-28T02:08:03;7.90;45.40
148;DHT22;142;50.652;12.216;2023-04-28T02:10:31;7.80;45.40
148;DHT22;142;50.652;12.216;2023-04-28T02:12:58;7.80;44.00
148;DHT22;142;50.652;12.216;2023-04-28T02:15:26;7.80;45.20
148;DHT22;142;50.652;12.216;2023-04-28T02:17:54;7.70;44.40
148;DHT22;142;50.652;12.216;2023-04-28T02:20:21;7.70;44.20
148;DHT22;142;50.652;12.216;2023-04-28T02:22:48;7.70;44.50
148;DHT22;142;50.652;12.216;2023-04-28T02:25:16;7.80;44.10
148;DHT22;142;50.652;12.216;2023-04-28T02:27:43;7.80;44.50
148;DHT22;142;50.652;12.216;2023-04-28T02:30:11;7.90;44.80
148;DHT22;142;50.652;12.216;2023-04-28T02:32:40;7.90;45.10
148;DHT22;142;50.652;12.216;2023-04-28T02:35:07;7.90;45.20
148;DHT22;142;50.652;12.216;2023-04-28T02:37:35;7.90;46.00
148;DHT22;142;50.652;12.216;2023-04-28T02:40:02;7.90;46.60
148;DHT22;142;50.652;12.216;2023-04-28T02:42:29;7.80;46.00
148;DHT22;142;50.652;12.216;2023-04-28T02:44:56;7.80;45.70
148;DHT22;142;50.652;12.216;2023-04-28T02:47:24;7.80;44.90
148;DHT22;142;50.652;12.216;2023-04-28T02:49:52;7.80;44.40
148;DHT22;142;50.652;12.216;2023-04-28T02:52:19;7.90;44.00
148;DHT22;142;50.652;12.216;2023-04-28T02:54:46;7.90;43.60
148;DHT22;142;50.652;12.216;2023-04-28T02:57:18;7.90;43.60
148;DHT22;142;50.652;12.216;2023-04-28T02:59:46;7.90;43.90
148;DHT22;142;50.652;12.216;2023-04-28T03:02:13;7.90;43.70
148;DHT22;142;50.652;12.216;2023-04-28T03:04:41;7.90;44.00
148;DHT22;142;50.652;12.216;2023-04-28T03:07:10;7.90;43.70
148;DHT22;142;50.652;12.216;2023-04-28T03:09:37;8.00;42.90
148;DHT22;142;50.652;12.216;2023-04-28T03:12:05;8.00;43.50
148;DHT22;142;50.652;12.216;2023-04-28T03:14:32;8.00;43.10
148;DHT22;142;50.652;12.216;2023-04-28T03:16:59;8.00;42.80
148;DHT22;142;50.652;12.216;2023-04-28T03:19:27;8.00;43.00
148;DHT22;142;50.652;12.216;2023-04-28T03:21:54;7.90;42.70
148;DHT22;142;50.652;12.216;2023-04-28T03:24:22;8.00;41.80
148;DHT22;142;50.652;12.216;2023-04-28T03:26:50;8.00;41.00
148;DHT22;142;50.652;12.216;2023-04-28T03:29:17;8.00;40.30
148;DHT22;142;50.652;12.216;2023-04-28T03:31:44;8.00;39.90
148;DHT22;142;50.652;12.216;2023-04-28T03:34:11;8.10;38.80
148;DHT22;142;50.652;12.216;2023-04-28T03:36:38;8.10;39.10
148;DHT22;142;50.652;12.216;2023-04-28T03:39:05;8.10;39.50
148;DHT22;142;50.652;12.216;2023-04-28T03:41:36;8.00;39.50
148;DHT22;142;50.652;12.216;2023-04-28T03:44:03;8.00;39.50
148;DHT22;142;50.652;12.216;2023-04-28T03:46:30;8.00;39.60
148;DHT22;142;50.652;12.216;2023-04-28T03:48:59;7.90;39.30
148;DHT22;142;50.652;12.216;2023-04-28T03:51:27;7.90;38.90
148;DHT22;142;50.652;12.216;2023-04-28T03:53:55;8.00;38.40
148;DHT22;142;50.652;12.216;2023-04-28T03:56:23;8.00;38.60
148;DHT22;142;50.652;12.216;2023-04-28T03:58:51;8.00;38.20
148;DHT22;142;50.652;12.216;2023-04-28T04:01:18;8.00;37.80
148;DHT22;142;50.652;12.216;2023-04-28T04:03:45;8.00;37.70
148;DHT22;142;50.652;12.216;2023-04-28T04:06:12;8.00;37.30
148;DHT22;142;50.652;12.216;2023-04-28T04:08:40;8.00;37.40
148;DHT22;142;50.652;12.216;2023-04-28T04:11:07;8.00;36.50
148;DHT22;142;50.652;12.216;2023-04-28T04:13:34;8.00;35.60
148;DHT22;142;50.652;12.216;2023-04-28T04:16:03;8.10;34.70
148;DHT22;142;50.652;12.216;2023-04-28T04:18:30;8.10;34.60
148;DHT22;142;50.652;12.216;2023-04-28T04:20:57;8.10;34.10
148;DHT22;142;50.652;12.216;2023-04-28T04:23:24;8.20;34.40
148;DHT22;142;50.652;12.216;2023-04-28T04:25:51;8.20;34.30
148;DHT22;142;50.652;12.216;2023-04-28T04:28:18;8.20;34.20
148;DHT22;142;50.652;12.216;2023-04-28T04:30:45;8.20;34.60
148;DHT22;142;50.652;12.216;2023-04-28T04:33:14;8.30;34.50
148;DHT22;142;50.652;12.216;2023-04-28T04:35:42;8.30;34.40
148;DHT22;142;50.652;12.216;2023-04-28T04:38:09;8.30;34.50
148;DHT22;142;50.652;12.216;2023-04-28T04:40:36;8.40;34.70
148;DHT22;142;50.652;12.216;2023-04-28T04:43:04;8.30;34.70
148;DHT22;142;50.652;12.216;2023-04-28T04:45:31;8.40;34.50
148;DHT22;142;50.652;12.216;2023-04-28T04:47:58;8.40;34.40
148;DHT22;142;50.652;12.216;2023-04-28T04:50:27;8.50;34.30
148;DHT22;142;50.652;12.216;2023-04-28T04:52:54;8.60;34.10
148;DHT22;142;50.652;12.216;2023-04-28T04:55:22;8.70;34.40
148;DHT22;142;50.652;12.216;2023-04-28T04:57:49;8.70;35.10
148;DHT22;142;50.652;12.216;2023-04-28T05:00:18;8.80;35.80
148;DHT22;142;50.652;12.216;2023-04-28T05:02:45;8.80;37.10
148;DHT22;142;50.652;12.216;2023-04-28T05:05:13;8.80;38.10
148;DHT22;142;50.652;12.216;2023-04-28T05:07:42;8.90;39.00
148;DHT22;142;50.652;12.216;2023-04-28T05:10:09;8.90;39.90
148;DHT22;142;50.652;12.216;2023-04-28T05:12:39;9.00;41.30
148;DHT22;142;50.652;12.216;2023-04-28T05:15:09;9.00;42.20
148;DHT22;142;50.652;12.216;2023-04-28T05:17:36;9.00;41.80
148;DHT22;142;50.652;12.216;2023-04-28T05:20:04;9.10;42.50
148;DHT22;142;50.652;12.216;2023-04-28T05:22:31;9.20;42.70
148;DHT22;142;50.652;12.216;2023-04-28T05:25:00;9.20;43.20
148;DHT22;142;50.652;12.216;2023-04-28T05:27:27;9.40;44.00
148;DHT22;142;50.652;12.216;2023-04-28T05:29:55;9.50;45.00
148;DHT22;142;50.652;12.216;2023-04-28T05:32:23;9.60;45.60
148;DHT22;142;50.652;12.216;2023-04-28T05:34:50;9.80;46.60
148;DHT22;142;50.652;12.216;2023-04-28T05:37:16;9.80;51.90
148;DHT22;142;50.652;12.216;2023-04-28T05:39:44;9.90;54.60
148;DHT22;142;50.652;12.216;2023-04-28T05:42:13;10.00;56.20
148;DHT22;142;50.652;12.216;2023-04-28T05:44:40;10.10;59.10
148;DHT22;142;50.652;12.216;2023-04-28T05:47:07;10.20;61.90
148;DHT22;142;50.652;12.216;2023-04-28T05:49:35;10.30;63.70
148;DHT22;142;50.652;12.216;2023-04-28T05:52:02;10.30;65.00
148;DHT22;142;50.652;12.216;2023-04-28T05:54:30;10.40;65.70
148;DHT22;142;50.652;12.216;2023-04-28T05:56:59;10.50;68.40
148;DHT22;142;50.652;12.216;2023-04-28T05:59:27;10.50;69.80
148;DHT22;142;50.652;12.216;2023-04-28T06:01:55;10.60;73.00
148;DHT22;142;50.652;12.216;2023-04-28T06:04:23;10.60;75.70
148;DHT22;142;50.652;12.216;2023-04-28T06:06:51;10.70;76.30
148;DHT22;142;50.652;12.216;2023-04-28T06:09:18;10.90;78.50
148;DHT22;142;50.652;12.216;2023-04-28T06:11:46;11.00;81.70
148;DHT22;142;50.652;12.216;2023-04-28T06:14:13;11.10;83.30
148;DHT22;142;50.652;12.216;2023-04-28T06:16:42;11.20;84.80
148;DHT22;142;50.652;12.216;2023-04-28T06:19:09;11.30;85.70
148;DHT22;142;50.652;12.216;2023-04-28T06:21:38;11.40;86.40
148;DHT22;142;50.652;12.216;2023-04-28T06:24:05;11.50;86.90
148;DHT22;142;50.652;12.216;2023-04-28T06:26:32;11.50;87.10
148;DHT22;142;50.652;12.216;2023-04-28T06:29:00;11.60;87.20
148;DHT22;142;50.652;12.216;2023-04-28T06:31:27;11.70;87.10
148;DHT22;142;50.652;12.216;2023-04-28T06:33:56;11.80;87.10
148;DHT22;142;50.652;12.216;2023-04-28T06:36:23;12.00;87.20
148;DHT22;142;50.652;12.216;2023-04-28T06:38:50;12.10;87.40
148;DHT22;142;50.652;12.216;2023-04-28T06:41:17;12.10;87.10
148;DHT22;142;50.652;12.216;2023-04-28T06:43:44;12.20;87.10
148;DHT22;142;50.652;12.216;2023-04-28T06:46:11;12.20;86.70
148;DHT22;142;50.652;12.216;2023-04-28T06:48:38;12.20;86.60
148;DHT22;142;50.652;12.216;2023-04-28T06:51:07;12.30;87.20
148;DHT22;142;50.652;12.216;2023-04-28T06:53:34;12.30;87.00
148;DHT22;142;50.652;12.216;2023-04-28T06:56:01;12.40;87.40
148;DHT22;142;50.652;12.216;2023-04-28T06:58:29;12.40;87.10
148;DHT22;142;50.652;12.216;2023-04-28T07:00:56;12.40;87.20
148;DHT22;142;50.652;12.216;2023-04-28T07:03:25;12.50;87.30
148;DHT22;142;50.652;12.216;2023-04-28T07:05:52;12.60;87.20
148;DHT22;142;50.652;12.216;2023-04-28T07:08:27;12.80;87.40
148;DHT22;142;50.652;12.216;2023-04-28T07:10:55;12.80;87.00
148;DHT22;142;50.652;12.216;2023-04-28T07:13:22;13.00;87.00
148;DHT22;142;50.652;12.216;2023-04-28T07:15:49;13.20;87.00
148;DHT22;142;50.652;12.216;2023-04-28T07:18:17;13.30;86.80
148;DHT22;142;50.652;12.216;2023-04-28T07:20:44;13.30;86.50
148;DHT22;142;50.652;12.216;2023-04-28T07:23:12;13.40;86.60
148;DHT22;142;50.652;12.216;2023-04-28T07:25:41;13.40;86.20
148;DHT22;142;50.652;12.216;2023-04-28T07:28:09;13.50;86.30
148;DHT22;142;50.652;12.216;2023-04-28T07:30:37;13.50;86.80
148;DHT22;142;50.652;12.216;2023-04-28T07:33:04;13.60;87.60
148;DHT22;142;50.652;12.216;2023-04-28T07:35:31;13.40;86.60
148;DHT22;142;50.652;12.216;2023-04-28T07:37:58;13.30;87.70
148;DHT22;142;50.652;12.216;2023-04-28T07:40:26;13.20;87.90
148;DHT22;142;50.652;12.216;2023-04-28T07:42:55;13.10;88.10
148;DHT22;142;50.652;12.216;2023-04-28T07:45:21;13.10;87.30
148;DHT22;142;50.652;12.216;2023-04-28T07:47:49;13.20;86.90
148;DHT22;142;50.652;12.216;2023-04-28T07:50:16;13.10;86.70
148;DHT22;142;50.652;12.216;2023-04-28T07:52:43;13.20;84.80
148;DHT22;142;50.652;12.216;2023-04-28T07:55:10;13.10;83.90
148;DHT22;142;50.652;12.216;2023-04-28T07:57:38;13.00;81.20
148;DHT22;142;50.652;12.216;2023-04-28T08:00:11;12.90;80.60
148;DHT22;142;50.652;12.216;2023-04-28T08:02:38;12.70;77.80
148;DHT22;142;50.652;12.216;2023-04-28T08:05:05;12.80;77.30
148;DHT22;142;50.652;12.216;2023-04-28T08:07:33;12.80;75.70
148;DHT22;142;50.652;12.216;2023-04-28T08:10:01;12.70;62.30
148;DHT22;142;50.652;12.216;2023-04-28T08:12:29;12.30;67.10
148;DHT22;142;50.652;12.216;2023-04-28T08:14:57;12.30;65.10
148;DHT22;142;50.652;12.216;2023-04-28T08:17:26;12.40;62.20
148;DHT22;142;50.652;12.216;2023-04-28T08:19:53;12.40;63.30
148;DHT22;142;50.652;12.216;2023-04-28T08:22:21;12.50;62.30
148;DHT22;142;50.652;12.216;2023-04-28T08:24:48;12.70;59.30
148;DHT22;142;50.652;12.216;2023-04-28T08:27:15;12.70;61.90
148;DHT22;142;50.652;12.216;2023-04-28T08:29:44;12.80;65.80
148;DHT22;142;50.652;12.216;2023-04-28T08:32:11;13.00;64.70
148;DHT22;142;50.652;12.216;2023-04-28T08:34:40;13.00;66.80
148;DHT22;142;50.652;12.216;2023-04-28T08:37:07;13.10;67.60
148;DHT22;142;50.652;12.216;2023-04-28T08:39:34;13.00;65.80
148;DHT22;142;50.652;12.216;2023-04-28T08:42:03;13.00;66.90
148;DHT22;142;50.652;12.216;2023-04-28T08:44:35;12.90;67.90
148;DHT22;142;50.652;12.216;2023-04-28T08:47:04;12.90;64.80
148;DHT22;142;50.652;12.216;2023-04-28T08:49:40;12.90;61.70
148;DHT22;142;50.652;12.216;2023-04-28T08:52:10;12.80;58.50
148;DHT22;142;50.652;12.216;2023-04-28T08:54:39;12.70;53.60
148;DHT22;142;50.652;12.216;2023-04-28T08:57:08;12.60;54.50
148;DHT22;142;50.652;12.216;2023-04-28T08:59:39;12.60;50.40
148;DHT22;142;50.652;12.216;2023-04-28T09:02:07;12.50;50.00
148;DHT22;142;50.652;12.216;2023-04-28T09:04:34;12.40;47.50
148;DHT22;142;50.652;12.216;2023-04-28T09:07:10;12.50;48.40
148;DHT22;142;50.652;12.216;2023-04-28T09:09:39;12.60;46.50
148;DHT22;142;50.652;12.216;2023-04-28T09:12:06;12.60;44.70
148;DHT22;142;50.652;12.216;2023-04-28T09:14:34;12.50;47.40
148;DHT22;142;50.652;12.216;2023-04-28T09:17:07;12.50;43.60
148;DHT22;142;50.652;12.216;2023-04-28T09:19:37;12.50;40.00
148;DHT22;142;50.652;12.216;2023-04-28T09:22:06;12.50;37.50
148;DHT22;142;50.652;12.216;2023-04-28T09:24:34;12.40;36.90
148;DHT22;142;50.652;12.216;2023-04-28T09:27:03;12.20;37.40
148;DHT22;142;50.652;12.216;2023-04-28T09:29:32;12.10;34.60
148;DHT22;142;50.652;12.216;2023-04-28T09:32:12;12.10;29.80
148;DHT22;142;50.652;12.216;2023-04-28T09:34:43;12.20;25.10
148;DHT22;142;50.652;12.216;2023-04-28T09:37:27;12.30;21.60
148;DHT22;142;50.652;12.216;2023-04-28T09:39:56;12.30;20.20
148;DHT22;142;50.652;12.216;2023-04-28T09:42:30;12.40;20.40
148;DHT22;142;50.652;12.216;2023-04-28T09:44:58;12.20;20.10
148;DHT22;142;50.652;12.216;2023-04-28T09:47:28;12.20;20.20
148;DHT22;142;50.652;12.216;2023-04-28T09:49:58;12.30;20.40
148;DHT22;142;50.652;12.216;2023-04-28T09:52:27;12.20;20.20
148;DHT22;142;50.652;12.216;2023-04-28T09:54:55;12.20;20.10
148;DHT22;142;50.652;12.216;2023-04-28T09:57:23;12.20;20.10
148;DHT22;142;50.652;12.216;2023-04-28T09:59:52;12.30;20.00
148;DHT22;142;50.652;12.216;2023-04-28T10:02:21;12.50;20.10
148;DHT22;142;50.652;12.216;2023-04-28T10:04:49;12.60;20.00
148;DHT22;142;50.652;12.216;2023-04-28T10:07:18;12.60;20.30
148;DHT22;142;50.652;12.216;2023-04-28T10:09:47;12.50;20.30
148;DHT22;142;50.652;12.216;2023-04-28T10:12:15;12.40;19.80
148;DHT22;142;50.652;12.216;2023-04-28T10:14:45;12.40;19.80
148;DHT22;142;50.652;12.216;2023-04-28T10:17:15;12.30;20.10
148;DHT22;142;50.652;12.216;2023-04-28T10:19:43;12.40;20.10
148;DHT22;142;50.652;12.216;2023-04-28T10:22:28;12.50;20.40
148;DHT22;142;50.652;12.216;2023-04-28T10:25:11;12.60;20.50
148;DHT22;142;50.652;12.216;2023-04-28T10:27:48;12.60;20.50
148;DHT22;142;50.652;12.216;2023-04-28T10:30:17;12.60;20.50
148;DHT22;142;50.652;12.216;2023-04-28T10:32:44;12.50;20.20
148;DHT22;142;50.652;12.216;2023-04-28T10:35:39;12.50;20.40
148;DHT22;142;50.652;12.216;2023-04-28T10:38:13;12.60;20.90
148;DHT22;142;50.652;12.216;2023-04-28T10:40:45;12.70;21.10
148;DHT22;142;50.652;12.216;2023-04-28T10:43:13;12.80;20.80
148;DHT22;142;50.652;12.216;2023-04-28T10:46:03;12.90;20.60
148;DHT22;142;50.652;12.216;2023-04-28T10:49:03;12.90;20.60
148;DHT22;142;50.652;12.216;2023-04-28T10:51:35;13.00;20.50
148;DHT22;142;50.652;12.216;2023-04-28T10:54:18;13.10;19.90
148;DHT22;142;50.652;12.216;2023-04-28T10:57:23;13.10;19.90
148;DHT22;142;50.652;12.216;2023-04-28T11:00:26;13.10;19.80
148;DHT22;142;50.652;12.216;2023-04-28T11:02:56;13.00;19.80
148;DHT22;142;50.652;12.216;2023-04-28T11:05:23;12.90;19.50
148;DHT22;142;50.652;12.216;2023-04-28T11:11:12;13.00;19.40
148;DHT22;142;50.652;12.216;2023-04-28T11:13:41;13.10;19.40
148;DHT22;142;50.652;12.216;2023-04-28T11:16:13;13.10;19.40
148;DHT22;142;50.652;12.216;2023-04-28T11:18:49;13.30;19.60
148;DHT22;142;50.652;12.216;2023-04-28T11:21:17;13.50;19.50
148;DHT22;142;50.652;12.216;2023-04-28T11:23:45;13.80;19.40
148;DHT22;142;50.652;12.216;2023-04-28T11:26:13;13.90;18.90
148;DHT22;142;50.652;12.216;2023-04-28T11:28:51;14.20;19.00
148;DHT22;142;50.652;12.216;2023-04-28T11:31:19;14.60;18.60
148;DHT22;142;50.652;12.216;2023-04-28T11:33:56;14.70;18.10
148;DHT22;142;50.652;12.216;2023-04-28T11:36:32;14.60;17.80
148;DHT22;142;50.652;12.216;2023-04-28T11:39:01;14.50;18.10
148;DHT22;142;50.652;12.216;2023-04-28T11:41:32;14.40;17.30
148;DHT22;142;50.652;12.216;2023-04-28T11:44:09;14.40;17.50
148;DHT22;142;50.652;12.216;2023-04-28T11:46:44;14.50;17.70
148;DHT22;142;50.652;12.216;2023-04-28T11:49:16;14.70;17.60
148;DHT22;142;50.652;12.216;2023-04-28T11:51:44;14.90;17.60
148;DHT22;142;50.652;12.216;2023-04-28T11:54:13;14.90;17.30
148;DHT22;142;50.652;12.216;2023-04-28T11:56:41;15.00;17.30
148;DHT22;142;50.652;12.216;2023-04-28T11:59:12;15.10;17.80
148;DHT22;142;50.652;12.216;2023-04-28T12:01:45;14.90;17.20
148;DHT22;142;50.652;12.216;2023-04-28T12:04:13;15.00;17.30
148;DHT22;142;50.652;12.216;2023-04-28T12:06:41;15.10;17.40
148;DHT22;142;50.652;12.216;2023-04-28T12:09:15;15.20;17.50
148;DHT22;142;50.652;12.216;2023-04-28T12:11:53;15.00;17.40
148;DHT22;142;50.652;12.216;2023-04-28T12:14:23;14.70;17.30
148;DHT22;142;50.652;12.216;2023-04-28T12:16:51;14.70;17.30
148;DHT22;142;50.652;12.216;2023-04-28T12:19:19;14.70;17.50
148;DHT22;142;50.652;12.216;2023-04-28T12:22:00;14.70;17.40
148;DHT22;142;50.652;12.216;2023-04-28T12:24:28;14.90;17.40
148;DHT22;142;50.652;12.216;2023-04-28T12:27:14;14.80;17.50
148;DHT22;142;50.652;12.216;2023-04-28T12:29:43;14.80;17.50
148;DHT22;142;50.652;12.216;2023-04-28T12:32:11;14.80;17.40
148;DHT22;142;50.652;12.216;2023-04-28T12:34:39;15.00;17.30
148;DHT22;142;50.652;12.216;2023-04-28T12:37:07;15.00;17.40
148;DHT22;142;50.652;12.216;2023-04-28T12:39:35;15.10;18.00
148;DHT22;142;50.652;12.216;2023-04-28T12:42:03;15.10;17.60
148;DHT22;142;50.652;12.216;2023-04-28T12:44:34;15.20;17.20
148;DHT22;142;50.652;12.216;2023-04-28T12:47:05;15.20;18.90
148;DHT22;142;50.652;12.216;2023-04-28T12:49:33;15.30;19.20
148;DHT22;142;50.652;12.216;2023-04-28T12:52:01;15.40;20.00
148;DHT22;142;50.652;12.216;2023-04-28T12:54:28;15.40;20.00
148;DHT22;142;50.652;12.216;2023-04-28T12:56:55;15.50;20.90
148;DHT22;142;50.652;12.216;2023-04-28T12:59:22;15.50;20.10
148;DHT22;142;50.652;12.216;2023-04-28T13:01:50;15.60;20.20
148;DHT22;142;50.652;12.216;2023-04-28T13:04:19;15.70;20.20
148;DHT22;142;50.652;12.216;2023-04-28T13:06:46;15.70;20.20
148;DHT22;142;50.652;12.216;2023-04-28T13:09:14;15.60;21.10
148;DHT22;142;50.652;12.216;2023-04-28T13:11:42;15.50;20.50
148;DHT22;142;50.652;12.216;2023-04-28T13:14:09;15.60;20.70
148;DHT22;142;50.652;12.216;2023-04-28T13:16:36;15.50;20.40
148;DHT22;142;50.652;12.216;2023-04-28T13:19:04;15.40;20.40
148;DHT22;142;50.652;12.216;2023-04-28T13:21:35;15.30;20.70
148;DHT22;142;50.652;12.216;2023-04-28T13:24:04;15.30;20.20
148;DHT22;142;50.652;12.216;2023-04-28T13:26:31;15.40;20.00
148;DHT22;142;50.652;12.216;2023-04-28T13:28:59;15.50;20.60
148;DHT22;142;50.652;12.216;2023-04-28T13:31:26;15.50;20.70
148;DHT22;142;50.652;12.216;2023-04-28T13:33:54;15.50;20.20
148;DHT22;142;50.652;12.216;2023-04-28T13:36:21;15.50;20.20
148;DHT22;142;50.652;12.216;2023-04-28T13:38:50;15.50;20.20
148;DHT22;142;50.652;12.216;2023-04-28T13:41:17;15.40;20.60
148;DHT22;142;50.652;12.216;2023-04-28T13:43:44;15.20;19.90
148;DHT22;142;50.652;12.216;2023-04-28T13:46:11;15.20;20.00
148;DHT22;142;50.652;12.216;2023-04-28T13:48:40;15.30;19.70
148;DHT22;142;50.652;12.216;2023-04-28T13:51:07;15.50;20.20
148;DHT22;142;50.652;12.216;2023-04-28T13:53:35;15.60;20.10
148;DHT22;142;50.652;12.216;2023-04-28T13:56:06;15.60;20.10
148;DHT22;142;50.652;12.216;2023-04-28T13:58:34;15.80;19.90
148;DHT22;142;50.652;12.216;2023-04-28T14:01:01;16.00;19.90
148;DHT22;142;50.652;12.216;2023-04-28T14:03:29;16.00;19.70
148;DHT22;142;50.652;12.216;2023-04-28T14:05:57;15.90;19.60
148;DHT22;142;50.652;12.216;2023-04-28T14:08:24;15.90;19.50
148;DHT22;142;50.652;12.216;2023-04-28T14:10:53;15.80;19.70
148;DHT22;142;50.652;12.216;2023-04-28T14:13:23;15.80;20.00
148;DHT22;142;50.652;12.216;2023-04-28T14:15:50;15.90;19.70
148;DHT22;142;50.652;12.216;2023-04-28T14:18:19;16.00;19.80
148;DHT22;142;50.652;12.216;2023-04-28T14:20:46;16.10;20.10
148;DHT22;142;50.652;12.216;2023-04-28T14:23:13;16.10;20.10
148;DHT22;142;50.652;12.216;2023-04-28T14:25:41;16.10;20.20
148;DHT22;142;50.652;12.216;2023-04-28T14:28:08;15.80;20.10
148;DHT22;142;50.652;12.216;2023-04-28T14:30:37;15.60;19.80
148;DHT22;142;50.652;12.216;2023-04-28T14:33:04;15.50;19.80
148;DHT22;142;50.652;12.216;2023-04-28T14:35:33;15.40;19.50
148;DHT22;142;50.652;12.216;2023-04-28T14:38:00;15.60;19.50
148;DHT22;142;50.652;12.216;2023-04-28T14:40:27;15.80;20.80
148;DHT22;142;50.652;12.216;2023-04-28T14:42:55;15.60;20.00
148;DHT22;142;50.652;12.216;2023-04-28T14:45:22;15.60;20.00
148;DHT22;142;50.652;12.216;2023-04-28T14:47:51;15.50;19.70
148;DHT22;142;50.652;12.216;2023-04-28T14:50:18;15.30;19.80
148;DHT22;142;50.652;12.216;2023-04-28T14:52:45;15.10;19.40
148;DHT22;142;50.652;12.216;2023-04-28T14:55:12;15.00;19.50
148;DHT22;142;50.652;12.216;2023-04-28T14:57:40;15.00;19.10
148;DHT22;142;50.652;12.216;2023-04-28T15:00:08;15.00;19.10
148;DHT22;142;50.652;12.216;2023-04-28T15:02:35;15.00;19.40
148;DHT22;142;50.652;12.216;2023-04-28T15:05:05;14.90;18.90
148;DHT22;142;50.652;12.216;2023-04-28T15:07:33;15.00;18.90
148;DHT22;142;50.652;12.216;2023-04-28T15:10:00;15.10;18.90
148;DHT22;142;50.652;12.216;2023-04-28T15:12:27;15.10;19.10
148;DHT22;142;50.652;12.216;2023-04-28T15:14:55;15.10;19.00
148;DHT22;142;50.652;12.216;2023-04-28T15:17:22;15.10;19.00
148;DHT22;142;50.652;12.216;2023-04-28T15:19:50;15.10;19.00
148;DHT22;142;50.652;12.216;2023-04-28T15:22:21;15.00;19.00
148;DHT22;142;50.652;12.216;2023-04-28T15:24:49;14.90;18.70
148;DHT22;142;50.652;12.216;2023-04-28T15:27:16;14.80;18.70
148;DHT22;142;50.652;12.216;2023-04-28T15:29:44;14.70;18.60
148;DHT22;142;50.652;12.216;2023-04-28T15:32:13;14.80;18.60
148;DHT22;142;50.652;12.216;2023-04-28T15:34:40;14.80;18.50
148;DHT22;142;50.652;12.216;2023-04-28T15:37:40;14.80;18.70
148;DHT22;142;50.652;12.216;2023-04-28T15:40:10;14.90;18.50
148;DHT22;142;50.652;12.216;2023-04-28T15:42:38;14.90;19.00
148;DHT22;142;50.652;12.216;2023-04-28T15:45:07;14.80;18.80
148;DHT22;142;50.652;12.216;2023-04-28T15:47:35;14.60;18.50
148;DHT22;142;50.652;12.216;2023-04-28T15:50:04;14.60;18.50
148;DHT22;142;50.652;12.216;2023-04-28T15:52:32;14.60;18.60
148;DHT22;142;50.652;12.216;2023-04-28T15:55:01;14.60;18.60
148;DHT22;142;50.652;12.216;2023-04-28T15:57:28;14.70;18.50
148;DHT22;142;50.652;12.216;2023-04-28T15:59:55;14.70;18.70
148;DHT22;142;50.652;12.216;2023-04-28T16:02:22;14.60;18.60
148;DHT22;142;50.652;12.216;2023-04-28T16:04:50;14.50;18.50
148;DHT22;142;50.652;12.216;2023-04-28T16:07:17;14.60;18.60
148;DHT22;142;50.652;12.216;2023-04-28T16:09:44;14.60;18.70
148;DHT22;142;50.652;12.216;2023-04-28T16:12:13;14.60;18.50
148;DHT22;142;50.652;12.216;2023-04-28T16:14:40;14.50;18.40
148;DHT22;142;50.652;12.216;2023-04-28T16:17:08;14.40;18.60
148;DHT22;142;50.652;12.216;2023-04-28T16:19:35;14.50;18.70
148;DHT22;142;50.652;12.216;2023-04-28T16:22:02;14.50;18.80
148;DHT22;142;50.652;12.216;2023-04-28T16:24:31;14.40;18.60
148;DHT22;142;50.652;12.216;2023-04-28T16:27:01;14.40;18.80
148;DHT22;142;50.652;12.216;2023-04-28T16:29:29;14.30;18.80
148;DHT22;142;50.652;12.216;2023-04-28T16:31:57;14.30;18.80
148;DHT22;142;50.652;12.216;2023-04-28T16:34:24;14.30;18.90
148;DHT22;142;50.652;12.216;2023-04-28T16:36:51;14.20;18.90
148;DHT22;142;50.652;12.216;2023-04-28T16:39:18;14.20;19.00